createdAt,value
2018-09-26T00:00:55.122Z,1.43
2018-09-26T00:03:22.170Z,1.30
2018-09-26T00:05:49.423Z,1.43
2018-09-26T00:08:16.471Z,1.73
2018-09-26T00:10:43.525Z,1.33
2018-09-26T00:13:11.080Z,1.50
2018-09-26T00:15:38.133Z,1.50
2018-09-26T00:18:05.177Z,1.60
2018-09-26T00:20:32.226Z,1.70
2018-09-26T00:22:59.279Z,1.50
2018-09-26T00:25:26.737Z,1.40
2018-09-26T00:27:53.781Z,1.63
2018-09-26T00:30:20.931Z,1.53
2018-09-26T00:32:47.980Z,1.60
2018-09-26T00:35:15.035Z,1.43
2018-09-26T00:37:42.998Z,1.40
2018-09-26T00:40:10.010Z,1.50
2018-09-26T00:42:36.972Z,1.67
2018-09-26T00:45:04.044Z,1.83
2018-09-26T00:47:31.097Z,1.60
2018-09-26T00:49:58.253Z,1.60
2018-09-26T00:52:25.292Z,1.50
2018-09-26T00:54:52.339Z,1.73
2018-09-26T00:57:19.394Z,1.40
2018-09-26T00:59:46.439Z,1.97
2018-09-26T01:02:13.587Z,1.40
2018-09-26T01:04:40.636Z,1.73
2018-09-26T01:07:07.693Z,1.60
2018-09-26T01:09:34.734Z,1.77
2018-09-26T01:12:01.745Z,2.00
2018-09-26T01:14:28.835Z,1.80
2018-09-26T01:16:55.878Z,1.83
2018-09-26T01:19:22.930Z,1.37
2018-09-26T01:21:49.983Z,1.77
2018-09-26T01:24:17.025Z,1.80
2018-09-26T01:26:44.899Z,1.70
2018-09-26T01:29:11.941Z,1.60
2018-09-26T01:31:38.993Z,1.50
2018-09-26T01:34:06.000Z,1.70
2018-09-26T01:36:32.985Z,1.90
2018-09-26T01:39:00.038Z,1.57
2018-09-26T01:41:27.404Z,1.80
2018-09-26T01:43:54.439Z,2.10
2018-09-26T01:46:21.490Z,1.90
2018-09-26T01:48:48.535Z,1.97
2018-09-26T01:51:15.582Z,1.83
2018-09-26T01:53:43.931Z,1.57
2018-09-26T01:56:11.629Z,2.00
2018-09-26T01:58:38.675Z,1.70
2018-09-26T02:01:05.725Z,1.70
2018-09-26T02:03:33.390Z,1.43
2018-09-26T02:06:00.434Z,1.90
2018-09-26T02:08:27.484Z,1.60
2018-09-26T02:10:54.537Z,1.70
2018-09-26T02:13:21.583Z,1.67
2018-09-26T02:15:48.737Z,1.60
2018-09-26T02:18:16.807Z,1.80
2018-09-26T02:20:43.817Z,1.60
2018-09-26T02:23:10.907Z,1.80
2018-09-26T02:25:38.058Z,1.80
2018-09-26T02:28:05.102Z,1.73
2018-09-26T02:30:32.151Z,2.00
2018-09-26T02:32:59.207Z,1.83
2018-09-26T02:35:26.244Z,1.63
2018-09-26T02:37:53.397Z,1.80
2018-09-26T02:40:20.446Z,1.50
2018-09-26T02:42:47.499Z,1.83
2018-09-26T02:45:14.541Z,1.90
2018-09-26T02:47:41.593Z,1.80
2018-09-26T02:50:08.643Z,1.70
2018-09-26T02:52:35.694Z,1.60
2018-09-26T02:55:02.736Z,1.90
2018-09-26T02:57:29.790Z,1.50
2018-09-26T02:59:56.833Z,1.90
2018-09-26T03:02:23.845Z,1.50
2018-09-26T03:04:50.937Z,1.67
2018-09-26T03:07:38.802Z,1.60
2018-09-26T03:10:21.505Z,1.33
2018-09-26T03:12:48.531Z,1.83
2018-09-26T03:15:15.791Z,1.70
2018-09-26T03:17:42.948Z,1.80
2018-09-26T03:20:09.984Z,1.77
2018-09-26T03:22:37.031Z,1.50
2018-09-26T03:25:04.088Z,1.53
2018-09-26T03:27:31.333Z,1.87
2018-09-26T03:29:58.387Z,1.67
2018-09-26T03:32:25.424Z,2.10
2018-09-26T03:34:52.480Z,1.70
2018-09-26T03:37:19.533Z,1.63
2018-09-26T03:39:46.576Z,2.00
2018-09-26T03:42:14.409Z,1.50
2018-09-26T03:44:41.353Z,1.50
2018-09-26T03:47:08.448Z,2.27
2018-09-26T03:49:35.489Z,2.07
2018-09-26T03:52:02.536Z,2.37
2018-09-26T03:54:29.589Z,2.43
2018-09-26T03:56:56.633Z,2.50
2018-09-26T03:59:23.681Z,2.30
2018-09-26T04:01:50.735Z,2.43
2018-09-26T04:04:17.779Z,2.50
2018-09-26T04:06:45.958Z,2.03
2018-09-26T04:09:13.004Z,2.07
2018-09-26T04:11:40.061Z,1.90
2018-09-26T04:14:07.104Z,1.83
2018-09-26T04:16:34.149Z,2.03
2018-09-26T04:19:01.198Z,2.07
2018-09-26T04:21:28.352Z,1.87
2018-09-26T04:23:55.399Z,1.87
2018-09-26T04:26:22.483Z,1.70
2018-09-26T04:28:49.595Z,1.80
2018-09-26T04:31:16.604Z,1.50
2018-09-26T04:33:43.846Z,1.87
2018-09-26T04:36:10.946Z,2.10
2018-09-26T04:38:38.095Z,1.80
2018-09-26T04:41:05.043Z,1.97
2018-09-26T04:43:32.397Z,1.80
2018-09-26T04:45:59.452Z,1.70
2018-09-26T04:48:46.532Z,1.63
2018-09-26T04:51:13.614Z,1.90
2018-09-26T04:53:40.663Z,1.80
2018-09-26T04:56:07.719Z,2.00
2018-09-26T04:58:34.760Z,1.33
2018-09-26T05:01:01.813Z,1.80
2018-09-26T05:03:28.864Z,1.80
2018-09-26T05:05:55.908Z,1.70
2018-09-26T05:08:23.036Z,1.83
2018-09-26T05:10:50.211Z,1.90
2018-09-26T05:13:17.257Z,1.90
2018-09-26T05:15:45.637Z,2.07
2018-09-26T05:18:12.793Z,1.77
2018-09-26T05:20:39.842Z,1.67
2018-09-26T05:23:06.903Z,1.70
2018-09-26T05:25:34.853Z,1.80
2018-09-26T05:28:01.918Z,2.00
2018-09-26T05:30:28.973Z,1.73
2018-09-26T05:32:56.000Z,2.20
2018-09-26T05:35:23.151Z,1.90
2018-09-26T05:37:50.438Z,2.13
2018-09-26T05:40:17.863Z,1.63
2018-09-26T05:42:44.911Z,2.07
2018-09-26T05:45:11.964Z,2.07
2018-09-26T05:47:39.119Z,1.90
2018-09-26T05:50:06.161Z,2.20
2018-09-26T05:52:33.310Z,2.13
2018-09-26T05:55:00.460Z,2.33
2018-09-26T05:57:27.510Z,2.10
2018-09-26T05:59:54.564Z,2.33
2018-09-26T06:02:21.606Z,2.60
2018-09-26T06:04:48.658Z,2.00
2018-09-26T06:07:19.088Z,1.93
2018-09-26T06:09:46.131Z,2.03
2018-09-26T06:12:13.180Z,2.13
2018-09-26T06:14:40.233Z,1.87
2018-09-26T06:17:07.276Z,2.13
2018-09-26T06:19:34.429Z,2.00
2018-09-26T06:22:01.442Z,2.23
2018-09-26T06:24:38.291Z,2.67
2018-09-26T06:27:05.513Z,2.60
2018-09-26T06:29:32.553Z,3.00
2018-09-26T06:31:59.603Z,2.80
2018-09-26T06:34:26.964Z,2.30
2018-09-26T06:36:53.974Z,2.10
2018-09-26T06:39:21.021Z,2.20
2018-09-26T06:41:48.309Z,1.90
2018-09-26T06:44:15.358Z,2.17
2018-09-26T06:46:42.411Z,2.73
2018-09-26T06:49:09.869Z,2.40
2018-09-26T06:51:38.557Z,2.40
2018-09-26T06:54:05.644Z,2.10
2018-09-26T06:56:32.649Z,2.13
2018-09-26T06:58:59.703Z,1.90
2018-09-26T07:01:26.713Z,2.30
2018-09-26T07:03:53.696Z,1.83
2018-09-26T07:06:20.847Z,2.00
2018-09-26T07:08:47.998Z,2.23
2018-09-26T07:11:15.155Z,1.80
2018-09-26T07:13:42.194Z,1.37
2018-09-26T07:16:32.854Z,1.40
2018-09-26T07:19:19.561Z,1.90
2018-09-26T07:22:09.068Z,1.63
2018-09-26T07:24:36.131Z,1.40
2018-09-26T07:27:03.281Z,1.73
2018-09-26T07:29:30.429Z,1.70
2018-09-26T07:31:57.485Z,1.90
2018-09-26T07:34:24.637Z,1.70
2018-09-26T07:36:51.678Z,1.27
2018-09-26T07:39:18.727Z,1.23
2018-09-26T07:41:45.784Z,1.93
2018-09-26T07:44:12.829Z,1.50
2018-09-26T07:46:39.873Z,1.70
2018-09-26T07:49:06.928Z,1.80
2018-09-26T07:51:33.971Z,1.67
2018-09-26T07:54:00.985Z,1.27
2018-09-26T07:56:28.074Z,1.70
2018-09-26T07:58:55.116Z,1.17
2018-09-26T08:01:22.164Z,1.47
2018-09-26T08:03:49.224Z,1.60
2018-09-26T08:06:17.294Z,1.60
2018-09-26T08:08:44.335Z,2.07
2018-09-26T08:11:29.591Z,2.17
2018-09-26T08:14:06.522Z,1.50
2018-09-26T08:16:33.947Z,1.90
2018-09-26T08:19:01.098Z,1.50
2018-09-26T08:21:28.769Z,1.10
2018-09-26T08:23:56.262Z,1.57
2018-09-26T08:26:23.376Z,1.60
2018-09-26T08:28:50.419Z,0.53
2018-09-26T08:31:17.467Z,1.73
2018-09-26T08:33:44.618Z,1.47
2018-09-26T08:36:11.871Z,1.60
2018-09-26T08:38:38.920Z,1.77
2018-09-26T08:41:05.976Z,0.87
2018-09-26T08:43:33.017Z,1.67
2018-09-26T08:46:00.475Z,1.60
2018-09-26T08:48:27.526Z,2.07
2018-09-26T08:50:54.676Z,1.60
2018-09-26T08:53:21.729Z,1.50
2018-09-26T08:56:07.688Z,1.73
2018-09-26T08:58:54.159Z,1.53
2018-09-26T09:01:42.740Z,1.43
2018-09-26T09:04:28.906Z,0.90
2018-09-26T09:07:16.032Z,1.50
2018-09-26T09:10:03.487Z,1.50
2018-09-26T09:12:48.434Z,1.60
2018-09-26T09:15:15.536Z,1.43
2018-09-26T09:17:42.628Z,1.37
2018-09-26T09:20:09.694Z,1.63
2018-09-26T09:22:36.885Z,1.43
2018-09-26T09:25:04.959Z,1.70
2018-09-26T09:27:32.060Z,1.67
2018-09-26T09:29:59.778Z,1.60
2018-09-26T09:32:26.928Z,2.23
2018-09-26T09:34:53.974Z,1.47
2018-09-26T09:37:21.020Z,1.60
2018-09-26T09:39:48.076Z,1.30
2018-09-26T09:42:15.226Z,1.53
2018-09-26T09:44:43.093Z,1.50
2018-09-26T09:47:10.143Z,1.87
2018-09-26T09:49:37.294Z,1.50
2018-09-26T09:52:06.662Z,1.53
2018-09-26T09:54:33.843Z,1.67
2018-09-26T09:57:02.125Z,1.77
2018-09-26T09:59:29.170Z,1.80
2018-09-26T10:01:56.320Z,1.50
2018-09-26T10:04:23.370Z,1.77
2018-09-26T10:06:50.422Z,1.50
2018-09-26T10:09:17.466Z,1.52
2018-09-26T10:11:44.618Z,1.35
2018-09-26T10:14:11.948Z,1.55
2018-09-26T10:16:39.028Z,1.75
2018-09-26T10:19:06.071Z,1.60
2018-09-26T10:21:33.946Z,1.65
2018-09-26T10:24:00.986Z,1.58
2018-09-26T10:26:28.035Z,1.70
2018-09-26T10:28:55.188Z,1.67
2018-09-26T10:31:22.240Z,1.80
2018-09-26T10:33:49.283Z,1.65
2018-09-26T10:36:16.338Z,1.62
2018-09-26T10:38:43.386Z,1.75
2018-09-26T10:41:10.537Z,1.50
2018-09-26T10:43:37.994Z,1.73
2018-09-26T10:46:05.013Z,1.73
2018-09-26T10:48:32.088Z,1.65
2018-09-26T10:50:59.237Z,1.70
2018-09-26T10:53:26.290Z,1.58
2018-09-26T10:55:53.336Z,1.70
2018-09-26T10:58:20.387Z,1.67
2018-09-26T11:00:47.864Z,1.30
2018-09-26T11:03:14.897Z,1.60
2018-09-26T11:05:42.048Z,1.73
2018-09-26T11:08:10.372Z,1.40
2018-09-26T11:10:37.786Z,1.30
2018-09-26T11:13:04.825Z,1.60
2018-09-26T11:15:31.882Z,1.60
2018-09-26T11:18:00.264Z,1.67
2018-09-26T11:20:27.303Z,1.62
2018-09-26T11:22:54.351Z,1.90
2018-09-26T11:25:21.405Z,1.92
2018-09-26T11:27:48.654Z,1.70
2018-09-26T11:30:16.588Z,1.80
2018-09-26T11:32:43.784Z,1.90
2018-09-26T11:35:13.058Z,1.40
2018-09-26T11:37:40.234Z,1.60
2018-09-26T11:40:07.722Z,1.45
2018-09-26T11:42:35.042Z,1.52
2018-09-26T11:45:02.089Z,1.80
2018-09-26T11:47:30.268Z,1.70
2018-09-26T11:49:57.416Z,1.62
2018-09-26T11:52:24.865Z,1.90
2018-09-26T11:54:51.827Z,1.40
2018-09-26T11:57:18.868Z,1.52
2018-09-26T11:59:45.917Z,1.60
2018-09-26T12:02:14.251Z,1.73
2018-09-26T12:04:41.757Z,1.65
2018-09-26T12:07:09.223Z,1.42
2018-09-26T12:09:36.470Z,1.60
2018-09-26T12:12:03.784Z,1.75
2018-09-26T12:14:31.183Z,1.73
2018-09-26T12:16:58.399Z,1.70
2018-09-26T12:19:25.749Z,1.60
2018-09-26T12:21:54.067Z,1.62
2018-09-26T12:24:21.337Z,2.15
2018-09-26T12:26:48.368Z,1.45
2018-09-26T12:29:15.519Z,1.77
2018-09-26T12:31:44.148Z,1.70
2018-09-26T12:34:11.681Z,1.95
2018-09-26T12:36:38.922Z,1.70
2018-09-26T12:39:06.273Z,1.90
2018-09-26T12:41:33.838Z,1.40
2018-09-26T12:44:02.394Z,1.80
2018-09-26T12:46:29.677Z,1.80
2018-09-26T12:48:56.783Z,1.70
2018-09-26T12:51:24.077Z,1.92
2018-09-26T12:54:05.488Z,1.67
2018-09-26T12:56:32.612Z,1.75
2018-09-26T12:58:59.871Z,1.90
2018-09-26T13:01:27.221Z,1.50
2018-09-26T13:03:55.191Z,1.90
2018-09-26T13:06:22.660Z,1.30
2018-09-26T13:08:49.805Z,1.83
2018-09-26T13:11:16.887Z,1.62
2018-09-26T13:13:46.273Z,2.05
2018-09-26T13:16:14.306Z,1.60
2018-09-26T13:18:41.579Z,1.87
2018-09-26T13:21:08.698Z,1.98
2018-09-26T13:23:37.127Z,2.10
2018-09-26T13:26:05.317Z,1.90
2018-09-26T13:28:32.540Z,1.90
2018-09-26T13:30:59.815Z,1.80
2018-09-26T13:33:29.240Z,1.90
2018-09-26T13:35:56.759Z,2.30
2018-09-26T13:38:24.219Z,2.05
2018-09-26T13:40:51.577Z,1.95
2018-09-26T13:43:18.728Z,2.53
2018-09-26T13:45:45.940Z,2.17
2018-09-26T13:48:14.486Z,1.70
2018-09-26T13:50:41.716Z,2.42
2018-09-26T13:53:08.872Z,1.70
2018-09-26T13:55:35.914Z,2.03
2018-09-26T13:58:03.478Z,1.90
2018-09-26T14:00:31.444Z,2.25
2018-09-26T14:03:02.180Z,2.20
2018-09-26T14:05:30.107Z,2.03
2018-09-26T14:07:58.281Z,1.95
2018-09-26T14:10:25.814Z,2.08
2018-09-26T14:12:52.929Z,2.67
2018-09-26T14:15:23.842Z,2.50
2018-09-26T14:17:51.022Z,2.17
2018-09-26T14:20:18.390Z,2.15
2018-09-26T14:22:45.541Z,2.03
2018-09-26T14:25:12.646Z,2.22
2018-09-26T14:27:40.655Z,2.40
2018-09-26T14:30:07.951Z,2.10
2018-09-26T14:32:35.264Z,2.30
2018-09-26T14:37:52.192Z,2.00
2018-09-26T14:40:19.655Z,2.10
2018-09-26T14:42:46.803Z,2.40
2018-09-26T14:45:14.093Z,2.03
2018-09-26T14:47:42.536Z,2.20
2018-09-26T14:50:12.493Z,2.10
2018-09-26T14:52:39.932Z,2.30
2018-09-26T14:55:07.431Z,1.87
2018-09-26T14:57:34.521Z,2.30
2018-09-26T15:00:01.773Z,2.72
2018-09-26T15:02:28.924Z,2.25
2018-09-26T15:04:56.075Z,2.35
2018-09-26T15:07:23.337Z,2.50
2018-09-26T15:09:50.377Z,1.75
2018-09-26T15:12:18.376Z,2.00
2018-09-26T15:14:45.358Z,2.17
2018-09-26T15:17:12.647Z,2.20
2018-09-26T15:19:42.029Z,1.98
2018-09-26T15:22:12.715Z,2.10
2018-09-26T15:24:39.842Z,1.85
2018-09-26T15:27:07.398Z,2.12
2018-09-26T15:29:34.548Z,1.98
2018-09-26T15:32:01.602Z,2.17
2018-09-26T15:34:28.851Z,2.10
2018-09-26T15:36:57.866Z,2.15
2018-09-26T15:39:25.305Z,1.95
2018-09-26T15:41:53.990Z,2.10
2018-09-26T15:44:22.016Z,2.25
2018-09-26T15:46:50.010Z,2.10
2018-09-26T15:49:18.683Z,2.40
2018-09-26T15:51:46.353Z,2.20
2018-09-26T15:54:16.207Z,1.95
2018-09-26T15:56:43.865Z,2.28
2018-09-26T15:59:11.017Z,2.42
2018-09-26T16:01:39.377Z,2.60
2018-09-26T16:04:08.078Z,2.00
2018-09-26T16:06:37.046Z,2.10
2018-09-26T16:09:05.475Z,2.40
2018-09-26T16:11:33.757Z,1.80
2018-09-26T16:14:02.546Z,2.30
2018-09-26T16:16:51.540Z,1.92
2018-09-26T16:19:37.254Z,2.30
2018-09-26T16:22:06.318Z,2.20
2018-09-26T16:24:34.848Z,1.90
2018-09-26T16:27:06.602Z,2.10
2018-09-26T16:29:35.052Z,2.40
2018-09-26T16:32:03.576Z,1.90
2018-09-26T16:34:31.098Z,2.00
2018-09-26T16:37:00.647Z,1.73
2018-09-26T16:39:28.310Z,1.80
2018-09-26T16:41:55.761Z,2.10
2018-09-26T16:44:25.092Z,2.00
2018-09-26T16:46:55.393Z,1.87
2018-09-26T16:49:24.082Z,1.80
2018-09-26T16:51:55.893Z,2.20
2018-09-26T16:54:25.256Z,1.90
2018-09-26T16:56:52.496Z,1.80
2018-09-26T16:59:21.994Z,2.20
2018-09-26T17:02:13.544Z,2.25
2018-09-26T17:04:43.360Z,2.12
2018-09-26T17:07:14.994Z,2.35
2018-09-26T17:09:45.429Z,1.90
2018-09-26T17:12:15.742Z,2.20
2018-09-26T17:14:44.498Z,2.30
2018-09-26T17:17:15.165Z,2.30
2018-09-26T17:19:42.829Z,1.92
2018-09-26T17:22:12.264Z,2.15
2018-09-26T17:24:42.565Z,2.10
2018-09-26T17:27:12.236Z,2.37
2018-09-26T17:29:40.548Z,2.50
2018-09-26T17:32:09.169Z,2.55
2018-09-26T17:34:37.654Z,2.47
2018-09-26T17:37:08.988Z,2.50
2018-09-26T17:39:38.346Z,2.28
2018-09-26T17:42:08.348Z,2.92
2018-09-26T17:44:37.860Z,2.83
2018-09-26T17:47:06.450Z,3.08
2018-09-26T17:49:34.867Z,2.95
2018-09-26T17:52:05.170Z,2.77
2018-09-26T17:54:33.632Z,2.30
2018-09-26T17:57:21.847Z,2.50
2018-09-26T18:00:03.195Z,3.63
2018-09-26T18:02:34.342Z,3.30
2018-09-26T18:05:03.450Z,3.70
2018-09-26T18:07:31.199Z,2.80
2018-09-26T18:09:59.662Z,3.00
2018-09-26T18:12:28.969Z,2.77
2018-09-26T18:14:57.117Z,2.80
2018-09-26T18:17:26.728Z,3.03
2018-09-26T18:22:33.220Z,2.53
2018-09-26T18:25:03.170Z,2.80
2018-09-26T18:27:30.797Z,2.93
2018-09-26T18:29:58.982Z,3.27
2018-09-26T18:35:01.938Z,3.17
2018-09-26T18:37:33.582Z,3.37
2018-09-26T18:40:01.333Z,3.00
2018-09-26T18:42:31.762Z,3.10
2018-09-26T18:45:03.264Z,2.77
2018-09-26T18:47:37.728Z,2.90
2018-09-26T18:50:06.027Z,3.13
2018-09-26T18:52:36.346Z,3.03
2018-09-26T18:55:10.138Z,2.60
2018-09-26T18:57:42.085Z,3.40
2018-09-26T19:00:17.269Z,3.00
2018-09-26T19:02:46.997Z,2.70
2018-09-26T19:05:17.493Z,3.27
2018-09-26T19:07:47.940Z,3.27
2018-09-26T19:10:17.747Z,3.10
2018-09-26T19:17:54.836Z,3.20
2018-09-26T19:20:24.871Z,2.90
2018-09-26T19:22:56.036Z,3.00
2018-09-26T19:27:56.474Z,3.57
2018-09-26T19:30:26.685Z,3.13
2018-09-26T19:32:58.068Z,3.50
2018-09-26T19:35:29.363Z,3.40
2018-09-26T19:37:57.121Z,3.40
2018-09-26T19:40:27.906Z,3.87
2018-09-26T19:43:01.206Z,3.17
2018-09-26T19:45:32.291Z,3.60
2018-09-26T19:48:04.968Z,3.23
2018-09-26T19:50:37.713Z,3.90
2018-09-26T19:53:09.142Z,3.43
2018-09-26T19:55:42.719Z,3.33
2018-09-26T19:58:13.636Z,3.47
2018-09-26T20:00:45.536Z,3.33
2018-09-26T20:03:16.417Z,2.90
2018-09-26T20:05:46.358Z,3.13
2018-09-26T20:08:15.432Z,3.60
2018-09-26T20:10:45.000Z,3.47
2018-09-26T20:13:17.308Z,4.20
2018-09-26T20:15:46.746Z,4.10
2018-09-26T20:18:15.383Z,4.13
2018-09-26T20:20:46.435Z,3.63
2018-09-26T20:23:15.876Z,3.97
2018-09-26T20:25:43.783Z,3.80
2018-09-26T20:28:14.007Z,3.77
2018-09-26T20:30:43.853Z,3.73
2018-09-26T20:33:13.869Z,4.10
2018-09-26T20:35:46.174Z,4.60
2018-09-26T20:38:14.717Z,4.60
2018-09-26T20:40:43.445Z,4.23
2018-09-26T20:43:11.043Z,4.67
2018-09-26T20:45:39.316Z,4.03
2018-09-26T20:48:11.586Z,3.63
2018-09-26T20:50:39.452Z,3.77
2018-09-26T20:53:12.487Z,4.03
2018-09-26T20:55:40.006Z,3.80
2018-09-26T20:58:08.312Z,3.77
2018-09-26T21:00:36.210Z,4.20
2018-09-26T21:03:04.701Z,4.07
2018-09-26T21:05:31.946Z,3.70
2018-09-26T21:07:59.201Z,3.37
2018-09-26T21:10:26.794Z,4.43
2018-09-26T21:12:55.384Z,4.13
2018-09-26T21:15:22.535Z,3.87
2018-09-26T21:17:49.700Z,3.73
2018-09-26T21:20:16.938Z,4.97
2018-09-26T21:22:43.991Z,4.20
2018-09-26T21:25:11.044Z,4.53
2018-09-26T21:27:39.901Z,4.47
2018-09-26T21:30:06.977Z,4.80
2018-09-26T21:32:34.031Z,3.93
2018-09-26T21:35:01.076Z,4.40
2018-09-26T21:37:28.086Z,4.50
2018-09-26T21:39:55.070Z,4.63
2018-09-26T21:42:22.117Z,4.23
2018-09-26T21:44:49.171Z,4.30
2018-09-26T21:47:16.322Z,4.97
2018-09-26T21:49:43.474Z,5.17
2018-09-26T21:52:10.686Z,4.90
2018-09-26T21:54:37.667Z,4.50
2018-09-26T21:57:04.791Z,4.23
2018-09-26T21:59:32.172Z,4.57
2018-09-26T22:01:59.426Z,4.23
2018-09-26T22:04:26.856Z,4.57
2018-09-26T22:06:54.034Z,4.87
2018-09-26T22:09:21.083Z,5.10
2018-09-26T22:11:48.136Z,5.23
2018-09-26T22:14:15.180Z,4.43
2018-09-26T22:16:43.150Z,4.50
2018-09-26T22:19:10.203Z,4.50
2018-09-26T22:21:37.451Z,5.00
2018-09-26T22:24:07.117Z,4.90
2018-09-26T22:26:34.213Z,4.57
2018-09-26T22:29:01.265Z,5.60
2018-09-26T22:31:29.128Z,5.37
2018-09-26T22:33:56.183Z,5.30
2018-09-26T22:36:23.232Z,4.87
2018-09-26T22:38:50.380Z,5.00
2018-09-26T22:41:17.429Z,5.43
2018-09-26T22:43:44.486Z,5.33
2018-09-26T22:46:12.139Z,5.07
2018-09-26T22:48:39.190Z,5.60
2018-09-26T22:51:06.172Z,5.37
2018-09-26T22:53:33.282Z,5.30
2018-09-26T22:56:00.545Z,5.53
2018-09-26T22:58:31.251Z,5.73
2018-09-26T23:00:58.422Z,5.27
2018-09-26T23:03:25.473Z,5.17
2018-09-26T23:05:52.528Z,5.00
2018-09-26T23:08:19.568Z,5.20
2018-09-26T23:10:46.617Z,5.20
2018-09-26T23:13:13.670Z,5.27
2018-09-26T23:15:40.713Z,5.03
2018-09-26T23:18:07.727Z,5.27
2018-09-26T23:20:34.817Z,6.10
2018-09-26T23:23:01.859Z,5.20
2018-09-26T23:25:28.907Z,5.97
2018-09-26T23:27:55.962Z,5.87
2018-09-26T23:30:23.420Z,4.83
2018-09-26T23:32:50.463Z,4.60
2018-09-26T23:35:17.614Z,5.17
2018-09-26T23:37:45.940Z,4.90
2018-09-26T23:40:13.046Z,5.43
2018-09-26T23:42:40.193Z,4.10
2018-09-26T23:45:07.245Z,4.33
2018-09-26T23:47:34.290Z,5.00
2018-09-26T23:50:01.340Z,4.47
2018-09-26T23:52:28.489Z,4.80
2018-09-26T23:54:55.640Z,4.67
2018-09-26T23:57:22.693Z,5.13
2018-09-26T23:59:49.804Z,4.90
